sensor_id;sensor_type;location;lat;lon;timestamp;P1;durP1;ratioP1;P2;durP2;ratioP2
16775;SDS011;8505;49.456;8.164;2022-08-25T00:00:12;5.95;;;3.00;;
16775;SDS011;8505;49.456;8.164;2022-08-25T00:02:40;4.80;;;3.07;;
16775;SDS011;8505;49.456;8.164;2022-08-25T00:05:23;5.60;;;3.17;;
16775;SDS011;8505;49.456;8.164;2022-08-25T00:07:55;5.68;;;3.30;;
16775;SDS011;8505;49.456;8.164;2022-08-25T00:10:24;5.55;;;3.40;;
16775;SDS011;8505;49.456;8.164;2022-08-25T00:12:54;5.83;;;3.20;;
16775;SDS011;8505;49.456;8.164;2022-08-25T00:15:22;5.20;;;3.20;;
16775;SDS011;8505;49.456;8.164;2022-08-25T00:17:50;3.97;;;3.30;;
16775;SDS011;8505;49.456;8.164;2022-08-25T00:20:18;4.28;;;3.40;;
16775;SDS011;8505;49.456;8.164;2022-08-25T00:22:46;4.40;;;3.33;;
16775;SDS011;8505;49.456;8.164;2022-08-25T00:25:14;4.15;;;3.05;;
16775;SDS011;8505;49.456;8.164;2022-08-25T00:27:43;4.75;;;3.30;;
16775;SDS011;8505;49.456;8.164;2022-08-25T00:30:12;4.57;;;3.47;;
16775;SDS011;8505;49.456;8.164;2022-08-25T00:32:42;7.93;;;3.42;;
16775;SDS011;8505;49.456;8.164;2022-08-25T00:35:23;5.28;;;3.30;;
16775;SDS011;8505;49.456;8.164;2022-08-25T00:37:52;5.50;;;3.40;;
16775;SDS011;8505;49.456;8.164;2022-08-25T00:40:19;7.97;;;3.45;;
16775;SDS011;8505;49.456;8.164;2022-08-25T00:42:50;6.13;;;3.30;;
16775;SDS011;8505;49.456;8.164;2022-08-25T00:45:19;5.13;;;3.30;;
16775;SDS011;8505;49.456;8.164;2022-08-25T00:47:49;4.88;;;3.30;;
16775;SDS011;8505;49.456;8.164;2022-08-25T00:50:16;4.55;;;3.30;;
16775;SDS011;8505;49.456;8.164;2022-08-25T00:52:48;7.57;;;3.45;;
16775;SDS011;8505;49.456;8.164;2022-08-25T00:55:20;4.68;;;3.20;;
16775;SDS011;8505;49.456;8.164;2022-08-25T00:57:54;6.15;;;3.40;;
16775;SDS011;8505;49.456;8.164;2022-08-25T01:00:26;4.60;;;3.20;;
16775;SDS011;8505;49.456;8.164;2022-08-25T01:02:56;6.00;;;3.20;;
16775;SDS011;8505;49.456;8.164;2022-08-25T01:05:25;5.38;;;3.28;;
16775;SDS011;8505;49.456;8.164;2022-08-25T01:07:55;5.68;;;3.38;;
16775;SDS011;8505;49.456;8.164;2022-08-25T01:10:25;4.95;;;3.30;;
16775;SDS011;8505;49.456;8.164;2022-08-25T01:12:57;5.15;;;3.10;;
16775;SDS011;8505;49.456;8.164;2022-08-25T01:20:26;4.55;;;3.15;;
16775;SDS011;8505;49.456;8.164;2022-08-25T01:22:57;7.22;;;3.72;;
16775;SDS011;8505;49.456;8.164;2022-08-25T01:25:29;4.50;;;3.08;;
16775;SDS011;8505;49.456;8.164;2022-08-25T01:28:05;4.75;;;3.58;;
16775;SDS011;8505;49.456;8.164;2022-08-25T01:30:33;5.38;;;3.40;;
16775;SDS011;8505;49.456;8.164;2022-08-25T01:33:02;7.25;;;3.72;;
16775;SDS011;8505;49.456;8.164;2022-08-25T01:35:31;6.65;;;3.50;;
16775;SDS011;8505;49.456;8.164;2022-08-25T01:38:01;4.78;;;3.15;;
16775;SDS011;8505;49.456;8.164;2022-08-25T01:40:30;3.88;;;3.17;;
16775;SDS011;8505;49.456;8.164;2022-08-25T01:43:02;4.38;;;3.05;;
16775;SDS011;8505;49.456;8.164;2022-08-25T01:45:39;7.00;;;3.58;;
16775;SDS011;8505;49.456;8.164;2022-08-25T01:48:09;4.18;;;3.03;;
16775;SDS011;8505;49.456;8.164;2022-08-25T01:50:38;3.92;;;3.47;;
16775;SDS011;8505;49.456;8.164;2022-08-25T01:53:11;8.05;;;3.70;;
16775;SDS011;8505;49.456;8.164;2022-08-25T01:55:40;7.10;;;3.70;;
16775;SDS011;8505;49.456;8.164;2022-08-25T01:58:20;7.07;;;3.58;;
16775;SDS011;8505;49.456;8.164;2022-08-25T02:00:50;6.05;;;3.33;;
16775;SDS011;8505;49.456;8.164;2022-08-25T02:03:21;4.72;;;3.28;;
16775;SDS011;8505;49.456;8.164;2022-08-25T02:05:50;4.53;;;3.30;;
16775;SDS011;8505;49.456;8.164;2022-08-25T02:08:21;5.25;;;3.13;;
16775;SDS011;8505;49.456;8.164;2022-08-25T02:10:50;5.65;;;3.28;;
16775;SDS011;8505;49.456;8.164;2022-08-25T02:13:18;6.32;;;3.53;;
16775;SDS011;8505;49.456;8.164;2022-08-25T02:15:57;4.60;;;3.38;;
16775;SDS011;8505;49.456;8.164;2022-08-25T02:18:27;5.80;;;3.70;;
16775;SDS011;8505;49.456;8.164;2022-08-25T02:20:55;5.82;;;3.55;;
16775;SDS011;8505;49.456;8.164;2022-08-25T02:23:24;4.88;;;3.55;;
16775;SDS011;8505;49.456;8.164;2022-08-25T02:25:52;9.80;;;3.40;;
16775;SDS011;8505;49.456;8.164;2022-08-25T02:28:20;5.05;;;3.80;;
16775;SDS011;8505;49.456;8.164;2022-08-25T02:30:48;5.13;;;3.60;;
16775;SDS011;8505;49.456;8.164;2022-08-25T02:33:24;4.90;;;3.50;;
16775;SDS011;8505;49.456;8.164;2022-08-25T02:35:51;7.07;;;4.10;;
16775;SDS011;8505;49.456;8.164;2022-08-25T02:38:24;4.90;;;3.58;;
16775;SDS011;8505;49.456;8.164;2022-08-25T02:40:53;5.43;;;3.63;;
16775;SDS011;8505;49.456;8.164;2022-08-25T02:43:21;5.38;;;3.95;;
16775;SDS011;8505;49.456;8.164;2022-08-25T02:45:50;5.47;;;3.70;;
16775;SDS011;8505;49.456;8.164;2022-08-25T02:48:18;6.05;;;3.92;;
16775;SDS011;8505;49.456;8.164;2022-08-25T02:50:47;5.15;;;3.78;;
16775;SDS011;8505;49.456;8.164;2022-08-25T02:53:17;6.75;;;3.95;;
16775;SDS011;8505;49.456;8.164;2022-08-25T02:55:50;7.63;;;4.30;;
16775;SDS011;8505;49.456;8.164;2022-08-25T02:58:17;5.22;;;4.25;;
16775;SDS011;8505;49.456;8.164;2022-08-25T03:00:46;6.07;;;3.90;;
16775;SDS011;8505;49.456;8.164;2022-08-25T03:03:14;6.63;;;4.30;;
16775;SDS011;8505;49.456;8.164;2022-08-25T03:05:43;5.60;;;4.22;;
16775;SDS011;8505;49.456;8.164;2022-08-25T03:08:10;7.57;;;4.28;;
16775;SDS011;8505;49.456;8.164;2022-08-25T03:10:38;5.13;;;4.20;;
16775;SDS011;8505;49.456;8.164;2022-08-25T03:13:07;5.80;;;4.20;;
16775;SDS011;8505;49.456;8.164;2022-08-25T03:15:35;7.50;;;4.50;;
16775;SDS011;8505;49.456;8.164;2022-08-25T03:18:04;5.60;;;4.45;;
16775;SDS011;8505;49.456;8.164;2022-08-25T03:20:34;6.22;;;4.22;;
16775;SDS011;8505;49.456;8.164;2022-08-25T03:23:01;7.00;;;4.50;;
16775;SDS011;8505;49.456;8.164;2022-08-25T03:25:30;5.75;;;4.30;;
16775;SDS011;8505;49.456;8.164;2022-08-25T03:28:17;6.45;;;4.38;;
16775;SDS011;8505;49.456;8.164;2022-08-25T03:30:54;6.32;;;4.47;;
16775;SDS011;8505;49.456;8.164;2022-08-25T03:33:22;7.38;;;4.47;;
16775;SDS011;8505;49.456;8.164;2022-08-25T03:35:50;6.05;;;4.60;;
16775;SDS011;8505;49.456;8.164;2022-08-25T03:38:18;5.95;;;4.28;;
16775;SDS011;8505;49.456;8.164;2022-08-25T03:40:45;5.90;;;4.43;;
16775;SDS011;8505;49.456;8.164;2022-08-25T03:43:14;8.48;;;4.53;;
16775;SDS011;8505;49.456;8.164;2022-08-25T03:45:43;6.05;;;4.65;;
16775;SDS011;8505;49.456;8.164;2022-08-25T03:48:13;6.57;;;4.63;;
16775;SDS011;8505;49.456;8.164;2022-08-25T03:50:42;5.90;;;4.65;;
16775;SDS011;8505;49.456;8.164;2022-08-25T03:53:17;5.93;;;4.68;;
16775;SDS011;8505;49.456;8.164;2022-08-25T03:55:45;5.15;;;4.38;;
16775;SDS011;8505;49.456;8.164;2022-08-25T03:58:13;6.90;;;4.80;;
16775;SDS011;8505;49.456;8.164;2022-08-25T04:00:44;7.03;;;4.70;;
16775;SDS011;8505;49.456;8.164;2022-08-25T04:03:12;6.63;;;4.60;;
16775;SDS011;8505;49.456;8.164;2022-08-25T04:05:40;6.37;;;4.60;;
16775;SDS011;8505;49.456;8.164;2022-08-25T04:08:08;5.93;;;4.55;;
16775;SDS011;8505;49.456;8.164;2022-08-25T04:10:36;6.50;;;5.07;;
16775;SDS011;8505;49.456;8.164;2022-08-25T04:13:04;6.70;;;4.80;;
16775;SDS011;8505;49.456;8.164;2022-08-25T04:15:31;7.03;;;4.60;;
16775;SDS011;8505;49.456;8.164;2022-08-25T04:18:01;6.38;;;4.60;;
16775;SDS011;8505;49.456;8.164;2022-08-25T04:20:29;8.80;;;4.72;;
16775;SDS011;8505;49.456;8.164;2022-08-25T04:22:57;5.78;;;4.38;;
16775;SDS011;8505;49.456;8.164;2022-08-25T04:25:26;5.95;;;4.85;;
16775;SDS011;8505;49.456;8.164;2022-08-25T04:27:54;6.05;;;4.95;;
16775;SDS011;8505;49.456;8.164;2022-08-25T04:30:23;6.88;;;4.80;;
16775;SDS011;8505;49.456;8.164;2022-08-25T04:32:50;7.43;;;4.80;;
16775;SDS011;8505;49.456;8.164;2022-08-25T04:35:19;8.18;;;5.00;;
16775;SDS011;8505;49.456;8.164;2022-08-25T04:37:48;7.50;;;4.93;;
16775;SDS011;8505;49.456;8.164;2022-08-25T04:40:16;6.65;;;5.10;;
16775;SDS011;8505;49.456;8.164;2022-08-25T04:42:48;6.88;;;4.97;;
16775;SDS011;8505;49.456;8.164;2022-08-25T04:45:16;8.40;;;5.10;;
16775;SDS011;8505;49.456;8.164;2022-08-25T04:47:45;6.22;;;4.75;;
16775;SDS011;8505;49.456;8.164;2022-08-25T04:50:20;7.28;;;5.25;;
16775;SDS011;8505;49.456;8.164;2022-08-25T04:52:48;6.25;;;5.10;;
16775;SDS011;8505;49.456;8.164;2022-08-25T04:55:16;6.90;;;5.30;;
16775;SDS011;8505;49.456;8.164;2022-08-25T04:57:44;6.65;;;4.97;;
16775;SDS011;8505;49.456;8.164;2022-08-25T05:00:12;6.15;;;5.13;;
16775;SDS011;8505;49.456;8.164;2022-08-25T05:02:41;6.95;;;4.90;;
16775;SDS011;8505;49.456;8.164;2022-08-25T05:05:09;8.00;;;5.30;;
16775;SDS011;8505;49.456;8.164;2022-08-25T05:07:38;7.55;;;4.90;;
16775;SDS011;8505;49.456;8.164;2022-08-25T05:10:06;7.07;;;4.90;;
16775;SDS011;8505;49.456;8.164;2022-08-25T05:12:34;7.53;;;5.13;;
16775;SDS011;8505;49.456;8.164;2022-08-25T05:15:02;6.28;;;5.10;;
16775;SDS011;8505;49.456;8.164;2022-08-25T05:17:50;8.65;;;5.25;;
16775;SDS011;8505;49.456;8.164;2022-08-25T05:20:21;6.13;;;5.03;;
16775;SDS011;8505;49.456;8.164;2022-08-25T05:22:51;7.20;;;4.95;;
16775;SDS011;8505;49.456;8.164;2022-08-25T05:25:19;6.93;;;4.80;;
16775;SDS011;8505;49.456;8.164;2022-08-25T05:27:46;6.57;;;4.70;;
16775;SDS011;8505;49.456;8.164;2022-08-25T05:30:14;7.30;;;5.00;;
16775;SDS011;8505;49.456;8.164;2022-08-25T05:32:42;6.13;;;4.72;;
16775;SDS011;8505;49.456;8.164;2022-08-25T05:35:10;5.88;;;4.82;;
16775;SDS011;8505;49.456;8.164;2022-08-25T05:37:38;8.43;;;5.00;;
16775;SDS011;8505;49.456;8.164;2022-08-25T05:40:08;6.88;;;4.68;;
16775;SDS011;8505;49.456;8.164;2022-08-25T05:42:36;8.77;;;4.85;;
16775;SDS011;8505;49.456;8.164;2022-08-25T05:45:04;6.72;;;5.00;;
16775;SDS011;8505;49.456;8.164;2022-08-25T05:47:34;7.77;;;5.10;;
16775;SDS011;8505;49.456;8.164;2022-08-25T05:50:02;6.63;;;5.03;;
16775;SDS011;8505;49.456;8.164;2022-08-25T05:52:30;6.20;;;4.60;;
16775;SDS011;8505;49.456;8.164;2022-08-25T05:54:58;10.35;;;4.90;;
16775;SDS011;8505;49.456;8.164;2022-08-25T05:57:27;7.00;;;4.97;;
16775;SDS011;8505;49.456;8.164;2022-08-25T05:59:55;7.30;;;4.88;;
16775;SDS011;8505;49.456;8.164;2022-08-25T06:02:22;6.55;;;4.90;;
16775;SDS011;8505;49.456;8.164;2022-08-25T06:05:10;5.38;;;4.60;;
16775;SDS011;8505;49.456;8.164;2022-08-25T06:07:40;6.13;;;4.70;;
16775;SDS011;8505;49.456;8.164;2022-08-25T06:10:08;7.53;;;4.85;;
16775;SDS011;8505;49.456;8.164;2022-08-25T06:12:40;8.43;;;4.70;;
16775;SDS011;8505;49.456;8.164;2022-08-25T06:15:11;7.87;;;4.80;;
16775;SDS011;8505;49.456;8.164;2022-08-25T06:17:39;5.43;;;4.63;;
16775;SDS011;8505;49.456;8.164;2022-08-25T06:20:08;5.97;;;4.80;;
16775;SDS011;8505;49.456;8.164;2022-08-25T06:22:38;5.55;;;4.53;;
16775;SDS011;8505;49.456;8.164;2022-08-25T06:25:08;6.60;;;4.75;;
16775;SDS011;8505;49.456;8.164;2022-08-25T06:27:37;7.53;;;5.07;;
16775;SDS011;8505;49.456;8.164;2022-08-25T06:30:08;7.25;;;4.97;;
16775;SDS011;8505;49.456;8.164;2022-08-25T06:32:41;8.70;;;4.65;;
16775;SDS011;8505;49.456;8.164;2022-08-25T06:35:11;6.27;;;4.57;;
16775;SDS011;8505;49.456;8.164;2022-08-25T06:37:41;5.53;;;4.40;;
16775;SDS011;8505;49.456;8.164;2022-08-25T06:40:10;7.25;;;4.70;;
16775;SDS011;8505;49.456;8.164;2022-08-25T06:42:39;4.90;;;4.40;;
16775;SDS011;8505;49.456;8.164;2022-08-25T06:45:09;5.78;;;4.28;;
16775;SDS011;8505;49.456;8.164;2022-08-25T06:47:36;5.60;;;4.30;;
16775;SDS011;8505;49.456;8.164;2022-08-25T06:50:05;5.00;;;4.10;;
16775;SDS011;8505;49.456;8.164;2022-08-25T06:52:33;7.20;;;4.50;;
16775;SDS011;8505;49.456;8.164;2022-08-25T06:55:01;5.90;;;4.25;;
16775;SDS011;8505;49.456;8.164;2022-08-25T06:57:29;4.65;;;4.10;;
16775;SDS011;8505;49.456;8.164;2022-08-25T07:00:01;6.05;;;4.18;;
16775;SDS011;8505;49.456;8.164;2022-08-25T07:02:31;8.38;;;4.60;;
16775;SDS011;8505;49.456;8.164;2022-08-25T07:05:00;6.20;;;4.28;;
16775;SDS011;8505;49.456;8.164;2022-08-25T07:07:30;5.95;;;4.30;;
16775;SDS011;8505;49.456;8.164;2022-08-25T07:10:09;8.60;;;4.43;;
16775;SDS011;8505;49.456;8.164;2022-08-25T07:12:38;9.85;;;5.03;;
16775;SDS011;8505;49.456;8.164;2022-08-25T07:15:06;5.93;;;4.25;;
16775;SDS011;8505;49.456;8.164;2022-08-25T07:17:47;11.57;;;4.90;;
16775;SDS011;8505;49.456;8.164;2022-08-25T07:20:16;9.32;;;4.97;;
16775;SDS011;8505;49.456;8.164;2022-08-25T07:22:45;10.73;;;4.85;;
16775;SDS011;8505;49.456;8.164;2022-08-25T07:25:13;9.85;;;4.90;;
16775;SDS011;8505;49.456;8.164;2022-08-25T07:27:43;7.10;;;4.75;;
16775;SDS011;8505;49.456;8.164;2022-08-25T07:30:11;6.53;;;4.35;;
16775;SDS011;8505;49.456;8.164;2022-08-25T07:32:38;7.10;;;4.72;;
16775;SDS011;8505;49.456;8.164;2022-08-25T07:35:10;8.30;;;4.50;;
16775;SDS011;8505;49.456;8.164;2022-08-25T07:37:40;7.32;;;5.10;;
16775;SDS011;8505;49.456;8.164;2022-08-25T07:40:15;8.93;;;5.28;;
16775;SDS011;8505;49.456;8.164;2022-08-25T07:42:47;9.90;;;5.60;;
16775;SDS011;8505;49.456;8.164;2022-08-25T07:45:15;6.03;;;4.90;;
16775;SDS011;8505;49.456;8.164;2022-08-25T07:48:05;8.00;;;5.18;;
16775;SDS011;8505;49.456;8.164;2022-08-25T07:50:37;7.63;;;5.30;;
16775;SDS011;8505;49.456;8.164;2022-08-25T07:53:09;7.35;;;5.30;;
16775;SDS011;8505;49.456;8.164;2022-08-25T07:55:39;9.65;;;5.45;;
16775;SDS011;8505;49.456;8.164;2022-08-25T07:58:12;11.40;;;6.00;;
16775;SDS011;8505;49.456;8.164;2022-08-25T08:00:40;10.68;;;5.53;;
16775;SDS011;8505;49.456;8.164;2022-08-25T08:03:09;8.77;;;5.65;;
16775;SDS011;8505;49.456;8.164;2022-08-25T08:05:58;9.88;;;5.85;;
16775;SDS011;8505;49.456;8.164;2022-08-25T08:08:26;9.23;;;5.93;;
16775;SDS011;8505;49.456;8.164;2022-08-25T08:10:54;9.27;;;6.03;;
16775;SDS011;8505;49.456;8.164;2022-08-25T08:13:31;8.65;;;5.97;;
16775;SDS011;8505;49.456;8.164;2022-08-25T08:16:07;8.80;;;5.80;;
16775;SDS011;8505;49.456;8.164;2022-08-25T08:18:36;9.77;;;5.57;;
16775;SDS011;8505;49.456;8.164;2022-08-25T08:21:09;8.90;;;5.73;;
16775;SDS011;8505;49.456;8.164;2022-08-25T08:23:45;9.27;;;5.25;;
16775;SDS011;8505;49.456;8.164;2022-08-25T08:26:14;8.73;;;5.35;;
16775;SDS011;8505;49.456;8.164;2022-08-25T08:28:42;8.57;;;5.30;;
16775;SDS011;8505;49.456;8.164;2022-08-25T08:31:18;8.07;;;5.30;;
16775;SDS011;8505;49.456;8.164;2022-08-25T08:33:46;9.43;;;5.15;;
16775;SDS011;8505;49.456;8.164;2022-08-25T08:36:16;8.52;;;5.28;;
16775;SDS011;8505;49.456;8.164;2022-08-25T08:38:45;7.75;;;4.40;;
16775;SDS011;8505;49.456;8.164;2022-08-25T08:41:17;7.23;;;4.87;;
16775;SDS011;8505;49.456;8.164;2022-08-25T08:44:40;9.53;;;4.53;;
16775;SDS011;8505;49.456;8.164;2022-08-25T08:47:20;6.78;;;4.28;;
16775;SDS011;8505;49.456;8.164;2022-08-25T08:49:58;6.35;;;4.40;;
16775;SDS011;8505;49.456;8.164;2022-08-25T08:52:35;6.22;;;4.20;;
16775;SDS011;8505;49.456;8.164;2022-08-25T08:55:08;8.57;;;3.95;;
16775;SDS011;8505;49.456;8.164;2022-08-25T08:57:42;6.90;;;4.40;;
16775;SDS011;8505;49.456;8.164;2022-08-25T09:00:19;6.40;;;4.20;;
16775;SDS011;8505;49.456;8.164;2022-08-25T09:02:50;6.15;;;4.10;;
16775;SDS011;8505;49.456;8.164;2022-08-25T09:05:25;5.30;;;4.07;;
16775;SDS011;8505;49.456;8.164;2022-08-25T09:07:56;5.00;;;3.88;;
16775;SDS011;8505;49.456;8.164;2022-08-25T09:10:27;7.03;;;4.32;;
16775;SDS011;8505;49.456;8.164;2022-08-25T09:13:07;5.75;;;4.00;;
16775;SDS011;8505;49.456;8.164;2022-08-25T09:15:42;5.80;;;4.20;;
16775;SDS011;8505;49.456;8.164;2022-08-25T09:18:37;6.18;;;3.80;;
16775;SDS011;8505;49.456;8.164;2022-08-25T09:21:19;7.22;;;4.50;;
16775;SDS011;8505;49.456;8.164;2022-08-25T09:24:01;6.95;;;4.35;;
16775;SDS011;8505;49.456;8.164;2022-08-25T09:26:42;5.88;;;3.90;;
16775;SDS011;8505;49.456;8.164;2022-08-25T09:29:16;5.88;;;4.28;;
16775;SDS011;8505;49.456;8.164;2022-08-25T09:31:50;7.07;;;4.35;;
16775;SDS011;8505;49.456;8.164;2022-08-25T09:34:29;6.35;;;4.30;;
16775;SDS011;8505;49.456;8.164;2022-08-25T09:37:00;8.35;;;4.90;;
16775;SDS011;8505;49.456;8.164;2022-08-25T09:39:31;5.95;;;4.50;;
16775;SDS011;8505;49.456;8.164;2022-08-25T09:41:59;9.68;;;4.75;;
16775;SDS011;8505;49.456;8.164;2022-08-25T09:44:27;7.32;;;4.60;;
16775;SDS011;8505;49.456;8.164;2022-08-25T09:47:00;5.55;;;4.28;;
16775;SDS011;8505;49.456;8.164;2022-08-25T09:49:35;5.85;;;4.63;;
16775;SDS011;8505;49.456;8.164;2022-08-25T09:52:25;9.82;;;5.25;;
16775;SDS011;8505;49.456;8.164;2022-08-25T09:55:19;8.30;;;4.75;;
16775;SDS011;8505;49.456;8.164;2022-08-25T09:57:52;11.60;;;4.55;;
16775;SDS011;8505;49.456;8.164;2022-08-25T10:00:25;7.68;;;4.97;;
16775;SDS011;8505;49.456;8.164;2022-08-25T10:03:06;7.72;;;4.70;;
16775;SDS011;8505;49.456;8.164;2022-08-25T10:05:38;7.15;;;4.50;;
16775;SDS011;8505;49.456;8.164;2022-08-25T10:08:24;10.07;;;4.60;;
16775;SDS011;8505;49.456;8.164;2022-08-25T10:10:58;8.48;;;4.63;;
16775;SDS011;8505;49.456;8.164;2022-08-25T10:13:36;8.05;;;4.10;;
16775;SDS011;8505;49.456;8.164;2022-08-25T10:16:08;7.68;;;4.80;;
16775;SDS011;8505;49.456;8.164;2022-08-25T10:19:04;5.75;;;4.30;;
16775;SDS011;8505;49.456;8.164;2022-08-25T10:21:36;7.35;;;4.47;;
16775;SDS011;8505;49.456;8.164;2022-08-25T10:24:06;5.47;;;4.15;;
16775;SDS011;8505;49.456;8.164;2022-08-25T10:26:43;7.78;;;4.38;;
16775;SDS011;8505;49.456;8.164;2022-08-25T10:29:27;6.38;;;3.95;;
16775;SDS011;8505;49.456;8.164;2022-08-25T10:32:08;7.05;;;4.25;;
16775;SDS011;8505;49.456;8.164;2022-08-25T10:34:43;6.30;;;3.53;;
16775;SDS011;8505;49.456;8.164;2022-08-25T10:37:19;6.05;;;4.40;;
16775;SDS011;8505;49.456;8.164;2022-08-25T10:40:02;10.05;;;3.85;;
16775;SDS011;8505;49.456;8.164;2022-08-25T10:42:45;4.75;;;3.65;;
16775;SDS011;8505;49.456;8.164;2022-08-25T10:45:26;4.97;;;3.08;;
16775;SDS011;8505;49.456;8.164;2022-08-25T10:48:16;5.15;;;3.90;;
16775;SDS011;8505;49.456;8.164;2022-08-25T10:50:53;8.65;;;3.70;;
16775;SDS011;8505;49.456;8.164;2022-08-25T10:53:27;4.43;;;3.58;;
16775;SDS011;8505;49.456;8.164;2022-08-25T10:56:02;4.53;;;3.40;;
16775;SDS011;8505;49.456;8.164;2022-08-25T10:58:44;4.93;;;3.58;;
16775;SDS011;8505;49.456;8.164;2022-08-25T11:01:28;8.48;;;3.75;;
16775;SDS011;8505;49.456;8.164;2022-08-25T11:04:11;5.85;;;3.35;;
16775;SDS011;8505;49.456;8.164;2022-08-25T11:06:42;5.47;;;4.07;;
16775;SDS011;8505;49.456;8.164;2022-08-25T11:09:19;4.60;;;3.55;;
16775;SDS011;8505;49.456;8.164;2022-08-25T11:11:52;3.67;;;3.30;;
16775;SDS011;8505;49.456;8.164;2022-08-25T11:14:27;4.07;;;3.28;;
16775;SDS011;8505;49.456;8.164;2022-08-25T11:17:00;3.85;;;2.90;;
16775;SDS011;8505;49.456;8.164;2022-08-25T11:19:34;3.42;;;2.97;;
16775;SDS011;8505;49.456;8.164;2022-08-25T11:22:06;4.32;;;2.95;;
16775;SDS011;8505;49.456;8.164;2022-08-25T11:24:42;3.95;;;3.10;;
16775;SDS011;8505;49.456;8.164;2022-08-25T11:27:20;3.63;;;2.70;;
16775;SDS011;8505;49.456;8.164;2022-08-25T11:29:55;3.45;;;2.42;;
16775;SDS011;8505;49.456;8.164;2022-08-25T11:32:31;4.10;;;2.75;;
16775;SDS011;8505;49.456;8.164;2022-08-25T11:35:01;3.20;;;2.67;;
16775;SDS011;8505;49.456;8.164;2022-08-25T11:37:32;3.50;;;2.88;;
16775;SDS011;8505;49.456;8.164;2022-08-25T11:40:10;4.80;;;3.00;;
16775;SDS011;8505;49.456;8.164;2022-08-25T11:42:51;6.72;;;3.22;;
16775;SDS011;8505;49.456;8.164;2022-08-25T11:45:43;5.97;;;3.28;;
16775;SDS011;8505;49.456;8.164;2022-08-25T11:48:24;4.68;;;3.17;;
16775;SDS011;8505;49.456;8.164;2022-08-25T11:51:01;6.95;;;3.55;;
16775;SDS011;8505;49.456;8.164;2022-08-25T11:53:31;4.93;;;3.55;;
16775;SDS011;8505;49.456;8.164;2022-08-25T11:56:03;6.32;;;3.60;;
16775;SDS011;8505;49.456;8.164;2022-08-25T12:04:38;5.70;;;3.35;;
16775;SDS011;8505;49.456;8.164;2022-08-25T12:10:54;8.77;;;3.25;;
16775;SDS011;8505;49.456;8.164;2022-08-25T12:13:40;6.07;;;3.67;;
16775;SDS011;8505;49.456;8.164;2022-08-25T12:19:28;5.47;;;3.33;;
16775;SDS011;8505;49.456;8.164;2022-08-25T12:25:30;3.67;;;3.05;;
16775;SDS011;8505;49.456;8.164;2022-08-25T12:28:13;3.30;;;3.00;;
16775;SDS011;8505;49.456;8.164;2022-08-25T12:31:01;4.97;;;3.33;;
16775;SDS011;8505;49.456;8.164;2022-08-25T12:33:38;5.93;;;3.20;;
16775;SDS011;8505;49.456;8.164;2022-08-25T12:36:24;4.78;;;3.30;;
16775;SDS011;8505;49.456;8.164;2022-08-25T12:38:54;3.78;;;3.30;;
16775;SDS011;8505;49.456;8.164;2022-08-25T12:41:56;7.35;;;3.30;;
16775;SDS011;8505;49.456;8.164;2022-08-25T12:44:38;5.13;;;3.33;;
16775;SDS011;8505;49.456;8.164;2022-08-25T12:47:24;3.47;;;3.08;;
16775;SDS011;8505;49.456;8.164;2022-08-25T12:53:02;3.45;;;2.97;;
16775;SDS011;8505;49.456;8.164;2022-08-25T12:55:37;3.08;;;2.78;;
16775;SDS011;8505;49.456;8.164;2022-08-25T12:58:09;3.17;;;2.88;;
16775;SDS011;8505;49.456;8.164;2022-08-25T13:00:44;5.57;;;3.15;;
16775;SDS011;8505;49.456;8.164;2022-08-25T13:06:39;4.13;;;3.15;;
16775;SDS011;8505;49.456;8.164;2022-08-25T13:12:24;3.75;;;2.85;;
16775;SDS011;8505;49.456;8.164;2022-08-25T13:14:58;3.20;;;2.90;;
16775;SDS011;8505;49.456;8.164;2022-08-25T13:17:27;3.58;;;2.78;;
16775;SDS011;8505;49.456;8.164;2022-08-25T13:20:16;4.47;;;2.55;;
16775;SDS011;8505;49.456;8.164;2022-08-25T13:22:46;3.15;;;2.83;;
16775;SDS011;8505;49.456;8.164;2022-08-25T13:25:26;4.47;;;2.95;;
16775;SDS011;8505;49.456;8.164;2022-08-25T13:27:59;5.28;;;2.90;;
16775;SDS011;8505;49.456;8.164;2022-08-25T13:30:31;4.07;;;2.90;;
16775;SDS011;8505;49.456;8.164;2022-08-25T13:33:13;4.43;;;2.70;;
16775;SDS011;8505;49.456;8.164;2022-08-25T13:35:45;5.32;;;3.03;;
16775;SDS011;8505;49.456;8.164;2022-08-25T13:38:17;3.50;;;2.65;;
16775;SDS011;8505;49.456;8.164;2022-08-25T13:40:44;5.25;;;3.30;;
16775;SDS011;8505;49.456;8.164;2022-08-25T13:43:13;4.82;;;3.20;;
16775;SDS011;8505;49.456;8.164;2022-08-25T13:45:43;6.00;;;3.35;;
16775;SDS011;8505;49.456;8.164;2022-08-25T13:48:30;5.13;;;3.15;;
16775;SDS011;8505;49.456;8.164;2022-08-25T13:51:06;3.85;;;2.72;;
16775;SDS011;8505;49.456;8.164;2022-08-25T13:53:47;3.72;;;3.15;;
16775;SDS011;8505;49.456;8.164;2022-08-25T13:56:27;6.32;;;3.10;;
16775;SDS011;8505;49.456;8.164;2022-08-25T13:59:18;4.35;;;3.28;;
16775;SDS011;8505;49.456;8.164;2022-08-25T14:01:51;3.63;;;2.97;;
16775;SDS011;8505;49.456;8.164;2022-08-25T14:04:24;3.55;;;3.08;;
16775;SDS011;8505;49.456;8.164;2022-08-25T14:10:01;6.68;;;3.47;;
16775;SDS011;8505;49.456;8.164;2022-08-25T14:12:32;4.63;;;3.15;;
16775;SDS011;8505;49.456;8.164;2022-08-25T14:15:06;3.20;;;2.90;;
16775;SDS011;8505;49.456;8.164;2022-08-25T14:17:39;3.30;;;2.70;;
16775;SDS011;8505;49.456;8.164;2022-08-25T14:20:16;5.32;;;3.10;;
16775;SDS011;8505;49.456;8.164;2022-08-25T14:22:47;3.92;;;2.83;;
16775;SDS011;8505;49.456;8.164;2022-08-25T14:25:19;3.28;;;2.65;;
16775;SDS011;8505;49.456;8.164;2022-08-25T14:27:53;5.70;;;3.13;;
16775;SDS011;8505;49.456;8.164;2022-08-25T14:30:39;4.15;;;3.13;;
16775;SDS011;8505;49.456;8.164;2022-08-25T14:33:13;5.40;;;3.35;;
16775;SDS011;8505;49.456;8.164;2022-08-25T14:35:45;4.85;;;3.33;;
16775;SDS011;8505;49.456;8.164;2022-08-25T14:38:16;6.38;;;3.42;;
16775;SDS011;8505;49.456;8.164;2022-08-25T14:40:47;6.22;;;3.30;;
16775;SDS011;8505;49.456;8.164;2022-08-25T14:43:15;5.72;;;3.40;;
16775;SDS011;8505;49.456;8.164;2022-08-25T14:45:49;3.47;;;3.00;;
16775;SDS011;8505;49.456;8.164;2022-08-25T14:48:21;4.65;;;3.20;;
16775;SDS011;8505;49.456;8.164;2022-08-25T14:50:53;7.35;;;3.55;;
16775;SDS011;8505;49.456;8.164;2022-08-25T14:53:22;3.45;;;3.03;;
16775;SDS011;8505;49.456;8.164;2022-08-25T14:55:50;5.20;;;3.53;;
16775;SDS011;8505;49.456;8.164;2022-08-25T14:58:24;5.22;;;3.20;;
16775;SDS011;8505;49.456;8.164;2022-08-25T15:00:53;3.80;;;3.40;;
16775;SDS011;8505;49.456;8.164;2022-08-25T15:03:27;5.32;;;3.53;;
16775;SDS011;8505;49.456;8.164;2022-08-25T15:05:57;5.60;;;3.28;;
16775;SDS011;8505;49.456;8.164;2022-08-25T15:08:26;8.40;;;3.47;;
16775;SDS011;8505;49.456;8.164;2022-08-25T15:11:12;7.00;;;3.50;;
16775;SDS011;8505;49.456;8.164;2022-08-25T15:13:42;7.15;;;3.38;;
16775;SDS011;8505;49.456;8.164;2022-08-25T15:16:17;8.15;;;3.10;;
16775;SDS011;8505;49.456;8.164;2022-08-25T15:19:00;3.75;;;3.15;;
16775;SDS011;8505;49.456;8.164;2022-08-25T15:21:32;4.28;;;2.72;;
16775;SDS011;8505;49.456;8.164;2022-08-25T15:24:01;5.18;;;3.08;;
16775;SDS011;8505;49.456;8.164;2022-08-25T15:26:30;3.80;;;3.17;;
16775;SDS011;8505;49.456;8.164;2022-08-25T15:28:59;5.50;;;3.53;;
16775;SDS011;8505;49.456;8.164;2022-08-25T15:31:27;3.92;;;3.13;;
16775;SDS011;8505;49.456;8.164;2022-08-25T15:33:54;4.30;;;3.15;;
16775;SDS011;8505;49.456;8.164;2022-08-25T15:36:25;3.45;;;3.13;;
16775;SDS011;8505;49.456;8.164;2022-08-25T15:38:53;4.28;;;3.30;;
16775;SDS011;8505;49.456;8.164;2022-08-25T15:41:21;4.28;;;3.08;;
16775;SDS011;8505;49.456;8.164;2022-08-25T15:43:53;4.38;;;3.10;;
16775;SDS011;8505;49.456;8.164;2022-08-25T15:46:21;4.30;;;3.30;;
16775;SDS011;8505;49.456;8.164;2022-08-25T15:48:51;4.57;;;3.10;;
16775;SDS011;8505;49.456;8.164;2022-08-25T15:51:23;4.05;;;3.20;;
16775;SDS011;8505;49.456;8.164;2022-08-25T15:53:51;6.60;;;3.60;;
16775;SDS011;8505;49.456;8.164;2022-08-25T15:56:19;4.32;;;2.78;;
16775;SDS011;8505;49.456;8.164;2022-08-25T15:58:52;3.85;;;2.85;;
16775;SDS011;8505;49.456;8.164;2022-08-25T16:01:22;3.83;;;3.30;;
16775;SDS011;8505;49.456;8.164;2022-08-25T16:03:51;6.47;;;3.35;;
16775;SDS011;8505;49.456;8.164;2022-08-25T16:06:19;6.25;;;3.10;;